Time;durP1;ratioP1;P1;durP2;ratioP2;P2;SDS_P1;SDS_P2;PMS_P1;PMS_P2;Temp;Humidity;BMP_temperature;BMP_pressure;BME280_temperature;BME280_humidity;BME280_pressure;Samples;Min_cycle;Max_cycle;Signal;HPM_P1;HPM_P2
2020/12/28 12:58:36;;;;;;;4.88;2.00;;;;;;;7.49;77.75;97719.13;5086841;27;20405;-71
2020/12/28 13:01:01;;;;;;;4.43;1.83;;;;;;;6.95;78.53;97717.31;5064935;23;20053;-77
2020/12/28 13:03:27;;;;;;;5.22;2.40;;;;;;;6.04;83.09;97712.16;5062419;28;20024;-77
2020/12/28 13:05:53;;;;;;;9.45;2.33;;;;;;;5.43;86.94;97720.13;5055643;28;20039;-78
2020/12/28 13:08:19;;;;;;;5.55;2.83;;;;;;;5.24;86.81;97719.78;5060467;28;20032;-78
2020/12/28 13:10:46;;;;;;;6.43;2.67;;;;;;;5.22;87.42;97720.81;5066380;28;20025;-77
2020/12/28 13:13:11;;;;;;;6.20;3.05;;;;;;;4.90;87.93;97724.81;5064154;28;20013;-77
2020/12/28 13:15:36;;;;;;;5.32;2.38;;;;;;;4.72;89.35;97727.88;5056608;28;20662;-78
2020/12/28 13:18:02;;;;;;;8.82;2.83;;;;;;;4.70;90.79;97728.00;5062562;28;20046;-77
2020/12/28 13:20:28;;;;;;;11.45;3.33;;;;;;;4.63;91.33;97730.22;5067675;28;20032;-77
2020/12/28 13:22:54;;;;;;;7.75;2.22;;;;;;;4.60;90.67;97724.34;5055773;28;20379;-77
2020/12/28 13:25:19;;;;;;;7.03;2.28;;;;;;;4.63;91.66;97730.22;5069239;28;20036;-77
2020/12/28 13:27:45;;;;;;;10.98;2.72;;;;;;;4.59;91.41;97722.69;5058808;28;20465;-78
2020/12/28 13:30:10;;;;;;;11.55;2.40;;;;;;;4.58;91.86;97724.47;5069899;28;20081;-76
2020/12/28 13:32:36;;;;;;;5.80;2.60;;;;;;;4.60;91.13;97727.78;5060888;28;20028;-77
2020/12/28 13:35:01;;;;;;;8.98;2.50;;;;;;;4.62;91.36;97719.84;5069491;28;20027;-77
2020/12/28 13:37:27;;;;;;;8.77;2.53;;;;;;;4.50;91.38;97716.28;5060276;28;20048;-77
2020/12/28 13:39:52;;;;;;;7.72;2.78;;;;;;;4.60;90.85;97722.56;5052412;28;20075;-76
2020/12/28 13:42:17;;;;;;;4.38;2.38;;;;;;;4.60;91.38;97716.50;5065976;28;20040;-77
2020/12/28 14:04:25;;;;;;;8.85;2.92;;;;;;;4.67;92.55;97728.22;5750920;23;20067;-77
2020/12/28 14:06:51;;;;;;;17.77;6.70;;;;;;;4.66;92.80;97734.38;4905696;29;20040;-77
2020/12/28 14:11:47;;;;;;;11.57;4.35;;;;;;;4.58;92.63;97736.69;5040271;27;85549;-63
2020/12/28 14:14:12;;;;;;;19.20;6.60;;;;;;;4.58;93.31;97734.09;5038166;28;20051;-65
2020/12/28 14:16:37;;;;;;;5.50;2.83;;;;;;;4.60;92.42;97738.25;5033254;28;20068;-62
2020/12/28 14:19:02;;;;;;;8.20;2.70;;;;;;;4.52;92.23;97734.47;5032864;28;20140;-61
2020/12/28 14:21:29;;;;;;;12.25;4.43;;;;;;;4.52;92.66;97740.59;5035172;28;20021;-62
2020/12/28 14:23:54;;;;;;;21.60;7.25;;;;;;;4.53;92.80;97742.25;5034512;28;20112;-61
2020/12/28 14:26:20;;;;;;;18.63;6.18;;;;;;;4.49;92.74;97745.19;5040424;28;20029;-66
2020/12/28 14:28:46;;;;;;;47.15;15.57;;;;;;;4.41;93.53;97749.13;5032204;28;20048;-62
2020/12/28 14:31:16;;;;;;;38.72;13.40;;;;;;;4.37;94.53;97744.25;5039639;28;20192;-62
2020/12/28 14:33:41;;;;;;;24.20;9.20;;;;;;;4.31;94.65;97745.47;5035834;28;20025;-62
2020/12/28 14:36:09;;;;;;;10.70;4.72;;;;;;;4.33;95.08;97748.00;5037802;28;20033;-59
2020/12/28 14:38:34;;;;;;;4.88;2.88;;;;;;;4.32;95.14;97747.19;5031925;28;20033;-64
2020/12/28 14:40:59;;;;;;;8.68;3.30;;;;;;;4.39;94.29;97747.59;5034891;28;20030;-64
2020/12/28 14:43:24;;;;;;;8.45;3.17;;;;;;;4.32;94.72;97749.78;5027422;28;20075;-63
2020/12/28 14:45:50;;;;;;;9.40;4.45;;;;;;;4.31;94.54;97744.66;5030345;28;20075;-63
2020/12/28 14:48:15;;;;;;;5.60;3.53;;;;;;;4.27;95.26;97746.66;5033370;28;20392;-63
2020/12/28 14:50:40;;;;;;;7.85;4.78;;;;;;;4.25;95.20;97752.91;5031040;28;20075;-61
2020/12/28 14:53:06;;;;;;;9.90;3.95;;;;;;;4.37;95.19;97754.72;5033344;28;20384;-62
2020/12/28 14:55:31;;;;;;;5.97;2.92;;;;;;;4.38;95.17;97749.38;5034322;28;20079;-61
2020/12/28 14:57:56;;;;;;;4.57;2.75;;;;;;;4.32;95.49;97747.19;5036366;28;20032;-63
2020/12/28 15:00:22;;;;;;;7.68;3.10;;;;;;;4.27;95.06;97753.66;5032610;28;20036;-62
2020/12/28 15:02:48;;;;;;;8.65;2.95;;;;;;;4.26;95.31;97751.97;5035947;28;20067;-62
2020/12/28 15:05:33;;;;;;;8.75;2.92;;;;;;;4.16;94.84;97759.59;5036769;28;20033;-63
2020/12/28 15:07:58;;;;;;;6.65;2.58;;;;;;;4.10;95.56;97754.78;5026603;28;20052;-64
2020/12/28 15:10:23;;;;;;;8.93;3.65;;;;;;;4.04;95.75;97753.41;5010465;28;20679;-62
2020/12/28 15:12:49;;;;;;;10.15;4.00;;;;;;;4.07;95.45;97750.59;5033150;28;20037;-62
2020/12/28 15:15:14;;;;;;;12.63;3.58;;;;;;;3.94;96.15;97748.91;5033421;28;20483;-61
2020/12/28 15:17:39;;;;;;;6.78;3.47;;;;;;;3.88;96.25;97758.00;5038409;28;20029;-60
2020/12/28 15:20:04;;;;;;;8.55;3.65;;;;;;;3.84;96.75;97752.13;5034971;28;20025;-63
2020/12/28 15:22:34;;;;;;;8.55;4.10;;;;;;;3.81;97.29;97749.69;5022876;28;21476;-64
2020/12/28 15:24:59;;;;;;;8.48;3.90;;;;;;;3.75;97.23;97751.88;5019260;28;20535;-62
2020/12/28 15:27:24;;;;;;;9.55;3.47;;;;;;;3.76;97.74;97749.16;5011626;28;20041;-63
2020/12/28 15:29:50;;;;;;;6.03;3.38;;;;;;;3.76;97.97;97746.56;5021064;28;20116;-62
2020/12/28 15:32:15;;;;;;;5.57;3.40;;;;;;;3.78;98.24;97757.75;5009512;28;20111;-63
2020/12/28 15:34:40;;;;;;;9.40;3.58;;;;;;;3.86;98.03;97757.25;5016756;28;20258;-62
2020/12/28 15:37:05;;;;;;;5.35;3.22;;;;;;;3.78;98.08;97749.91;5020240;28;20342;-63
2020/12/28 15:39:31;;;;;;;8.95;4.28;;;;;;;3.80;98.59;97753.25;5010535;28;20177;-63
2020/12/28 15:41:56;;;;;;;8.73;3.63;;;;;;;3.81;98.16;97754.09;5020622;28;20127;-62
2020/12/28 15:44:21;;;;;;;9.63;3.95;;;;;;;3.75;98.49;97752.72;5014441;28;20388;-62
2020/12/28 15:46:46;;;;;;;6.20;3.53;;;;;;;3.84;98.67;97759.13;5022112;28;20025;-62
2020/12/28 15:49:12;;;;;;;9.82;3.97;;;;;;;3.84;98.77;97764.34;5016141;28;20037;-62
2020/12/28 15:51:37;;;;;;;8.68;3.80;;;;;;;3.89;98.67;97760.50;5017449;28;20736;-62
2020/12/28 15:54:02;;;;;;;9.65;3.70;;;;;;;3.86;98.96;97762.47;5017893;28;20434;-62
2020/12/28 15:56:27;;;;;;;5.53;3.22;;;;;;;3.84;98.81;97767.81;5022043;28;20048;-63
2020/12/28 15:58:53;;;;;;;28.98;15.45;;;;;;;3.86;98.50;97757.25;5016018;28;20033;-62
2020/12/28 16:01:18;;;;;;;163.10;95.30;;;;;;;3.91;98.35;97763.00;5017530;28;20053;-60
2020/12/28 16:03:43;;;;;;;22.02;16.15;;;;;;;3.93;98.43;97760.31;5023246;28;20033;-63
2020/12/28 16:06:11;;;;;;;11.77;8.40;;;;;;;3.89;98.74;97763.09;5017982;28;20037;-61
2020/12/28 16:08:36;;;;;;;76.65;38.55;;;;;;;3.92;98.53;97769.09;5015074;28;20040;-62
2020/12/28 16:11:02;;;;;;;41.85;24.75;;;;;;;3.98;98.26;97766.91;5016555;28;20041;-62
2020/12/28 16:13:27;;;;;;;13.00;8.23;;;;;;;3.95;98.31;97774.94;5017997;28;20457;-63
2020/12/28 16:15:52;;;;;;;11.93;8.30;;;;;;;3.99;98.13;97776.41;5012490;28;20249;-62
2020/12/28 16:18:17;;;;;;;8.13;4.68;;;;;;;4.00;98.32;97774.63;5018986;28;20036;-63
2020/12/28 16:20:43;;;;;;;12.63;6.03;;;;;;;4.08;97.71;97772.34;5018373;28;20064;-61
2020/12/28 16:23:08;;;;;;;11.25;5.13;;;;;;;4.05;97.20;97768.16;5020252;28;20029;-63
2020/12/28 16:25:34;;;;;;;8.13;3.88;;;;;;;4.09;96.93;97771.41;5021971;28;20032;-64
2020/12/28 16:28:02;;;;;;;7.90;3.90;;;;;;;4.09;96.48;97772.25;5020002;28;20032;-63
2020/12/28 16:30:28;;;;;;;10.20;4.18;;;;;;;4.09;96.59;97774.84;5019548;28;20033;-60
2020/12/28 16:33:01;;;;;;;17.58;6.13;;;;;;;3.98;97.46;97777.34;5014928;28;20602;-62
2020/12/28 16:35:26;;;;;;;9.15;4.43;;;;;;;4.04;97.25;97781.31;5016812;28;20033;-61
2020/12/28 16:37:52;;;;;;;7.45;4.35;;;;;;;3.98;97.42;97774.72;5020023;28;20377;-63
2020/12/28 16:40:17;;;;;;;8.63;4.20;;;;;;;3.95;97.66;97774.09;5013943;28;20337;-62
2020/12/28 16:42:43;;;;;;;8.40;3.95;;;;;;;3.95;97.86;97777.53;5017149;28;20042;-62
2020/12/28 16:45:08;;;;;;;6.05;3.88;;;;;;;3.97;97.02;97773.06;5021132;28;20045;-62
2020/12/28 16:47:33;;;;;;;8.55;3.97;;;;;;;4.00;96.68;97777.25;5019505;28;20083;-63
2020/12/28 16:49:59;;;;;;;8.90;4.53;;;;;;;4.07;96.37;97786.38;5018451;28;20031;-62
2020/12/28 16:52:25;;;;;;;8.30;3.60;;;;;;;4.18;95.05;97783.03;5017540;28;20588;-62
2020/12/28 16:54:51;;;;;;;6.05;3.80;;;;;;;4.15;95.38;97782.28;5019141;28;20040;-64
2020/12/28 16:57:16;;;;;;;10.68;5.38;;;;;;;4.10;95.91;97779.13;5015633;28;20033;-62
2020/12/28 16:59:41;;;;;;;7.68;4.25;;;;;;;4.04;96.27;97782.16;5020535;28;20044;-63
2020/12/28 17:02:07;;;;;;;6.88;4.05;;;;;;;4.07;96.10;97791.59;5020379;28;20418;-62
2020/12/28 17:04:32;;;;;;;7.13;4.47;;;;;;;4.07;96.43;97796.81;5019758;28;20041;-60
2020/12/28 17:06:59;;;;;;;16.55;5.07;;;;;;;4.25;95.01;97789.50;5017428;28;20033;-61
2020/12/28 17:09:26;;;;;;;7.63;4.43;;;;;;;4.11;95.81;97788.63;5021080;28;20040;-60
2020/12/28 17:11:52;;;;;;;8.95;4.65;;;;;;;4.15;95.67;97784.06;5018256;28;20048;-63
2020/12/28 17:14:18;;;;;;;19.42;9.10;;;;;;;4.01;96.61;97791.97;5015423;28;20033;-62
2020/12/28 17:16:50;;;;;;;11.32;6.72;;;;;;;4.01;96.88;97792.81;5017818;28;20079;-64
2020/12/28 17:19:22;;;;;;;10.98;6.53;;;;;;;3.97;97.05;97793.97;5018397;28;20025;-64
2020/12/28 17:21:55;;;;;;;7.72;5.10;;;;;;;4.04;96.57;97797.84;5016365;28;20314;-62
2020/12/28 17:24:25;;;;;;;6.90;3.83;;;;;;;4.15;95.75;97795.34;5010608;23;20509;-82
2020/12/28 17:26:55;;;;;;;14.30;5.35;;;;;;;4.17;95.75;97795.28;4984564;28;20054;-82
2020/12/28 17:29:21;;;;;;;10.85;5.78;;;;;;;4.22;94.90;97795.78;4988034;28;20030;-82
2020/12/28 17:31:53;;;;;;;9.18;4.13;;;;;;;4.26;94.95;97797.25;4985417;28;20092;-84
2020/12/28 17:34:20;;;;;;;9.63;4.15;;;;;;;4.30;94.16;97792.66;4985231;28;20042;-82
2020/12/28 17:36:45;;;;;;;5.00;3.47;;;;;;;4.21;95.71;97793.25;4982624;28;20041;-81
2020/12/28 17:39:11;;;;;;;12.70;3.80;;;;;;;4.23;95.05;97786.16;4999196;28;20030;-81
2020/12/28 17:41:37;;;;;;;6.13;3.55;;;;;;;4.28;94.45;97792.75;4979580;28;20034;-81
2020/12/28 17:44:03;;;;;;;6.57;3.70;;;;;;;4.31;94.65;97789.09;5000167;28;20038;-81
2020/12/28 17:46:28;;;;;;;10.95;4.30;;;;;;;4.24;95.28;97788.69;4986718;28;20037;-81
2020/12/28 17:48:54;;;;;;;5.03;3.30;;;;;;;4.27;94.52;97795.50;4985526;28;20041;-84
2020/12/28 17:51:19;;;;;;;7.63;4.55;;;;;;;4.24;94.66;97787.84;4994288;28;20038;-83
2020/12/28 17:53:46;;;;;;;6.72;3.97;;;;;;;4.18;95.52;97799.56;4982292;28;20038;-81
2020/12/28 17:56:19;;;;;;;13.23;7.47;;;;;;;4.25;95.31;97792.13;4985746;28;20036;-81
2020/12/28 17:58:45;;;;;;;13.65;6.80;;;;;;;4.19;96.17;97797.78;4985262;28;20140;-81
2020/12/28 18:01:36;;;;;;;11.30;6.50;;;;;;;4.22;95.30;97792.31;4981774;28;20137;-83
2020/12/28 18:04:01;;;;;;;12.40;5.88;;;;;;;4.20;95.64;97799.44;4909630;29;20040;-81
2020/12/28 18:06:27;;;;;;;13.40;6.65;;;;;;;4.11;96.28;97804.31;4910758;29;20467;-81
2020/12/28 18:08:53;;;;;;;9.07;6.10;;;;;;;4.17;96.14;97810.94;4925988;29;20465;-81
2020/12/28 18:11:29;;;;;;;14.40;6.82;;;;;;;4.18;96.30;97809.16;4926668;29;20032;-82
2020/12/28 18:13:58;;;;;;;10.43;6.20;;;;;;;4.10;96.47;97817.50;4930544;29;20279;-83
2020/12/28 18:16:26;;;;;;;14.07;6.78;;;;;;;4.10;95.73;97815.72;4929512;29;20226;-82
2020/12/28 18:18:51;;;;;;;12.50;7.70;;;;;;;4.06;96.19;97822.09;4930226;29;20054;-82
2020/12/28 18:21:18;;;;;;;11.02;7.78;;;;;;;3.99;96.81;97817.38;4926591;29;20743;-82
2020/12/28 18:23:44;;;;;;;12.30;9.02;;;;;;;3.97;96.85;97819.28;4913530;29;20072;-82
2020/12/28 18:26:10;;;;;;;12.95;9.00;;;;;;;3.94;97.54;97822.91;4915280;29;20056;-82
2020/12/28 18:28:36;;;;;;;12.48;9.40;;;;;;;3.85;98.15;97829.56;4908263;29;20036;-81
2020/12/28 18:31:04;;;;;;;13.43;8.90;;;;;;;3.90;97.54;97830.09;4911063;29;20613;-82
2020/12/28 18:33:31;;;;;;;12.82;9.07;;;;;;;3.87;98.33;97826.88;4909613;29;20031;-81
2020/12/28 18:35:56;;;;;;;11.32;9.00;;;;;;;3.88;98.78;97831.97;4926144;29;20163;-81
2020/12/28 18:38:23;;;;;;;14.20;9.10;;;;;;;3.87;98.36;97832.94;4916916;29;20098;-81
2020/12/28 18:40:52;;;;;;;17.25;11.55;;;;;;;3.76;99.90;97840.59;4958060;28;20612;-82
2020/12/28 18:43:17;;;;;;;13.23;10.15;;;;;;;3.73;100.00;97845.19;4984788;28;20595;-81
2020/12/28 18:45:47;;;;;;;16.58;12.20;;;;;;;3.69;100.00;97841.94;4985354;28;20087;-82
2020/12/28 18:48:12;;;;;;;18.05;11.35;;;;;;;3.66;100.00;97839.50;4984168;28;20097;-82
2020/12/28 18:50:39;;;;;;;17.08;11.55;;;;;;;3.66;100.00;97846.50;4983682;28;20030;-82
2020/12/28 18:53:04;;;;;;;13.35;10.32;;;;;;;3.75;100.00;97844.16;5000378;28;20030;-82
2020/12/28 18:55:29;;;;;;;15.90;11.02;;;;;;;3.78;100.00;97843.13;4984567;28;20485;-82
2020/12/28 18:57:55;;;;;;;17.02;12.48;;;;;;;3.75;100.00;97841.53;4988963;28;20022;-82
2020/12/28 19:00:22;;;;;;;20.40;13.45;;;;;;;3.70;100.00;97848.00;4986810;28;20030;-81
2020/12/28 19:02:48;;;;;;;27.08;17.08;;;;;;;3.66;100.00;97839.50;4990639;28;20026;-81
2020/12/28 19:05:14;;;;;;;20.75;12.30;;;;;;;3.74;100.00;97845.09;4993737;28;20033;-81
2020/12/28 19:07:40;;;;;;;16.65;10.93;;;;;;;3.70;100.00;97837.56;4986522;28;20083;-81
2020/12/28 19:10:05;;;;;;;16.83;10.52;;;;;;;3.64;100.00;97837.00;4988354;28;20094;-81
2020/12/28 19:12:30;;;;;;;20.27;13.80;;;;;;;3.68;100.00;97845.50;4988712;28;20042;-83
2020/12/28 19:14:56;;;;;;;18.02;12.00;;;;;;;3.65;100.00;97845.69;4995180;28;20045;-81
2020/12/28 19:17:22;;;;;;;18.67;11.57;;;;;;;3.69;100.00;97856.78;4995660;28;20044;-83
2020/12/28 19:19:49;;;;;;;15.80;12.23;;;;;;;3.63;100.00;97858.84;4986962;28;20026;-81
2020/12/28 19:22:15;;;;;;;18.60;13.00;;;;;;;3.56;100.00;97856.69;4985330;28;20073;-82
2020/12/28 19:24:41;;;;;;;20.35;14.00;;;;;;;3.54;100.00;97854.19;4983701;28;20046;-81
2020/12/28 19:27:06;;;;;;;19.00;13.43;;;;;;;3.55;100.00;97857.66;4990544;28;20026;-84
2020/12/28 19:29:34;;;;;;;16.45;10.65;;;;;;;3.58;100.00;97855.69;5001564;28;20037;-86
2020/12/28 19:32:01;;;;;;;15.23;12.15;;;;;;;3.53;100.00;97859.53;5002044;28;20078;-82
2020/12/28 19:34:27;;;;;;;18.20;13.20;;;;;;;3.54;100.00;97867.25;4984038;28;20120;-83
2020/12/28 19:36:54;;;;;;;20.83;14.43;;;;;;;3.45;100.00;97867.00;4983977;28;20470;-81
2020/12/28 19:39:20;;;;;;;21.35;14.07;;;;;;;3.48;100.00;97865.03;4986986;28;20403;-82
2020/12/28 19:41:48;;;;;;;20.40;14.80;;;;;;;3.45;100.00;97869.59;4987364;28;20033;-81
2020/12/28 19:44:15;;;;;;;28.42;18.55;;;;;;;3.46;100.00;97869.50;4984602;28;20066;-82
2020/12/28 19:46:41;;;;;;;27.33;18.75;;;;;;;3.39;100.00;97868.22;4984479;28;20039;-82
2020/12/28 19:49:08;;;;;;;19.00;13.68;;;;;;;3.42;100.00;97875.03;4984758;28;20038;-81
2020/12/28 19:51:36;;;;;;;26.67;18.52;;;;;;;3.36;100.00;97882.31;4990403;28;20045;-82
2020/12/28 19:54:03;;;;;;;53.03;31.63;;;;;;;3.33;100.00;97866.84;5002973;28;20154;-82
2020/12/28 19:56:29;;;;;;;38.08;23.25;;;;;;;3.40;100.00;97871.66;4987405;28;20023;-81
2020/12/28 19:59:05;;;;;;;33.50;21.75;;;;;;;3.39;100.00;97870.81;5003082;28;20038;-82
2020/12/28 20:01:30;;;;;;;22.63;15.32;;;;;;;3.43;100.00;97879.31;4985459;28;20484;-81
2020/12/28 20:03:56;;;;;;;35.33;22.90;;;;;;;3.35;100.00;97874.56;4980427;28;20026;-82
2020/12/28 20:06:21;;;;;;;20.48;13.45;;;;;;;3.31;100.00;97876.53;4983357;28;20058;-82
2020/12/28 20:08:47;;;;;;;34.95;28.08;;;;;;;3.30;100.00;97876.63;4997594;28;20485;-83
2020/12/28 20:11:12;;;;;;;20.23;15.60;;;;;;;3.28;100.00;97886.31;4985838;28;20422;-82
2020/12/28 20:13:38;;;;;;;19.75;13.32;;;;;;;3.26;100.00;97877.72;4991979;28;20031;-82
2020/12/28 20:16:03;;;;;;;20.73;13.50;;;;;;;3.24;100.00;97885.66;4986579;28;20034;-82
2020/12/28 20:18:28;;;;;;;22.17;11.63;;;;;;;3.19;100.00;97879.91;4984249;28;20093;-82
2020/12/28 20:20:54;;;;;;;20.67;13.45;;;;;;;3.21;100.00;97883.22;4987271;28;20030;-82
2020/12/28 20:23:19;;;;;;;21.50;13.27;;;;;;;3.21;100.00;97888.44;4978635;28;20027;-82
2020/12/28 20:25:45;;;;;;;15.95;10.38;;;;;;;3.34;100.00;97894.59;4999221;28;20065;-82
2020/12/28 20:28:13;;;;;;;14.45;11.07;;;;;;;3.31;100.00;97896.56;4983808;28;20035;-82
2020/12/28 20:30:39;;;;;;;25.35;11.63;;;;;;;3.29;100.00;97899.28;5003073;28;20060;-82
2020/12/28 20:33:04;;;;;;;16.00;11.68;;;;;;;3.30;100.00;97900.94;4987580;28;20397;-81
2020/12/28 20:35:30;;;;;;;17.98;11.95;;;;;;;3.32;100.00;97900.88;4984227;28;20019;-83
2020/12/28 20:37:55;;;;;;;18.05;12.82;;;;;;;3.33;100.00;97899.94;4983375;28;20038;-82
2020/12/28 20:40:30;;;;;;;18.65;12.75;;;;;;;3.32;100.00;97903.47;4983424;28;20090;-82
2020/12/28 20:42:56;;;;;;;18.27;11.80;;;;;;;3.32;100.00;97904.31;4984396;28;20038;-82
2020/12/28 20:45:23;;;;;;;17.90;12.70;;;;;;;3.36;100.00;97904.94;4986905;28;20026;-82
2020/12/28 20:47:48;;;;;;;19.02;12.07;;;;;;;3.35;100.00;97911.94;4985500;28;20031;-81
2020/12/28 20:50:14;;;;;;;16.63;11.70;;;;;;;3.38;100.00;97903.09;4984126;28;20030;-81
2020/12/28 20:52:39;;;;;;;17.13;12.38;;;;;;;3.36;100.00;97907.56;4992350;28;20034;-81
2020/12/28 20:55:05;;;;;;;15.80;11.52;;;;;;;3.44;100.00;97907.09;4983643;28;20034;-81
2020/12/28 20:57:30;;;;;;;17.42;11.65;;;;;;;3.41;100.00;97915.94;4984434;28;20022;-81
2020/12/28 21:00:10;;;;;;;20.02;12.85;;;;;;;3.39;100.00;97915.22;4999078;28;20041;-88
2020/12/28 21:02:50;;;;;;;22.88;13.63;;;;;;;3.35;100.00;97906.72;4960305;28;20152;-89
2020/12/28 21:05:59;;;;;;;24.00;14.73;;;;;;;3.37;100.00;97909.25;4966126;28;20041;-89
2020/12/28 21:08:55;;;;;;;19.95;13.98;;;;;;;3.45;100.00;97917.44;4883191;29;20123;-89
2020/12/28 21:11:47;;;;;;;16.73;12.73;;;;;;;3.46;100.00;97913.88;4841176;29;20077;-88
2020/12/28 21:14:47;;;;;;;16.70;11.77;;;;;;;3.41;100.00;97915.09;4836546;29;20647;-89
2020/12/28 21:17:36;;;;;;;17.00;12.43;;;;;;;3.41;100.00;97913.34;4856180;29;20549;-88
2020/12/28 21:20:43;;;;;;;21.50;11.95;;;;;;;3.42;100.00;97912.44;4847051;29;20101;-87
2020/12/28 21:23:22;;;;;;;16.75;11.88;;;;;;;3.43;100.00;97921.94;4871057;29;20085;-91
2020/12/28 21:25:48;;;;;;;19.33;13.75;;;;;;;3.44;100.00;97920.16;4884371;23;20045;-78
2020/12/28 21:28:13;;;;;;;18.00;12.65;;;;;;;3.44;100.00;97925.38;4997827;28;20394;-78
2020/12/28 21:30:38;;;;;;;17.80;11.95;;;;;;;3.44;100.00;97923.59;5000608;28;20575;-79
2020/12/28 21:33:04;;;;;;;18.58;12.50;;;;;;;3.42;100.00;97922.88;5002371;28;20030;-79
2020/12/28 21:35:29;;;;;;;21.23;13.35;;;;;;;3.42;100.00;97924.66;5003165;28;20062;-79
2020/12/28 21:37:54;;;;;;;17.75;13.13;;;;;;;3.38;100.00;97927.44;5002741;28;20572;-80
2020/12/28 21:40:20;;;;;;;23.25;13.98;;;;;;;3.41;100.00;97923.78;5006835;28;20027;-81
2020/12/28 21:42:46;;;;;;;20.05;14.52;;;;;;;3.38;100.00;97923.97;5007786;28;20060;-80
2020/12/28 21:45:11;;;;;;;21.98;16.05;;;;;;;3.38;100.00;97922.22;5002330;28;20038;-79
2020/12/28 21:47:37;;;;;;;23.67;15.73;;;;;;;3.38;100.00;97930.03;5006159;28;20069;-80
2020/12/28 21:50:04;;;;;;;22.30;14.60;;;;;;;3.34;100.00;97935.53;5010095;28;20113;-80
2020/12/28 21:52:29;;;;;;;20.38;14.77;;;;;;;3.31;100.00;97917.44;5006613;28;20025;-81
2020/12/28 21:54:55;;;;;;;19.23;13.88;;;;;;;3.33;100.00;97934.72;4976173;28;20042;-80
2020/12/28 21:57:22;;;;;;;22.42;15.07;;;;;;;3.36;100.00;97937.13;5007274;28;20029;-79
2020/12/28 21:59:48;;;;;;;23.50;14.73;;;;;;;3.35;100.00;97939.81;4996535;28;20030;-81
2020/12/28 22:02:23;;;;;;;18.95;14.02;;;;;;;3.31;100.00;97938.31;5006338;28;20040;-80
2020/12/28 22:04:49;;;;;;;24.10;14.60;;;;;;;3.35;100.00;97948.50;4999445;28;20045;-81
2020/12/28 22:07:14;;;;;;;25.42;16.10;;;;;;;3.35;100.00;97937.22;5010631;28;20040;-81
2020/12/28 22:09:39;;;;;;;23.33;15.93;;;;;;;3.41;100.00;97941.22;5006487;28;20034;-80
2020/12/28 22:12:04;;;;;;;24.30;15.45;;;;;;;3.36;100.00;97942.38;5015660;28;20034;-80
2020/12/28 22:14:30;;;;;;;25.20;16.77;;;;;;;3.40;100.00;97952.59;5019755;28;20030;-80
2020/12/28 22:17:03;;;;;;;22.55;15.77;;;;;;;3.37;100.00;97944.03;5014072;28;20469;-81
2020/12/28 22:19:29;;;;;;;24.40;15.55;;;;;;;3.42;100.00;97946.38;5011923;28;20121;-80
2020/12/28 22:21:55;;;;;;;27.77;17.35;;;;;;;3.40;100.00;97960.44;5009436;28;20057;-79
2020/12/28 22:24:20;;;;;;;31.25;17.58;;;;;;;3.41;100.00;97956.88;5018976;28;20065;-80
2020/12/28 22:26:50;;;;;;;23.92;15.88;;;;;;;3.42;100.00;97958.59;5019021;28;20034;-81
2020/12/28 22:29:15;;;;;;;27.40;17.48;;;;;;;3.43;100.00;97950.66;5003604;28;20022;-79
2020/12/28 22:31:41;;;;;;;22.90;17.15;;;;;;;3.44;100.00;97961.94;5006196;28;20044;-79
2020/12/28 22:34:06;;;;;;;26.30;17.40;;;;;;;3.43;100.00;97966.31;5012501;28;20033;-80
2020/12/28 22:36:31;;;;;;;27.13;17.20;;;;;;;3.43;100.00;97966.31;5010757;28;20034;-80
2020/12/28 22:38:57;;;;;;;28.15;17.55;;;;;;;3.41;100.00;97970.78;5008345;28;20041;-80
2020/12/28 22:41:22;;;;;;;30.23;18.05;;;;;;;3.45;100.00;97964.44;5005661;28;20070;-79
2020/12/28 22:43:47;;;;;;;24.80;16.95;;;;;;;3.44;100.00;97972.38;5020714;28;20283;-80
2020/12/28 22:46:12;;;;;;;23.50;16.95;;;;;;;3.47;100.00;97973.03;5010845;28;20045;-79
2020/12/28 22:48:38;;;;;;;25.90;17.98;;;;;;;3.48;100.00;97977.31;5013537;28;20124;-79
2020/12/28 22:51:06;;;;;;;27.02;18.10;;;;;;;3.48;100.00;97979.09;5004916;28;20034;-80
2020/12/28 22:53:33;;;;;;;24.27;17.30;;;;;;;3.48;100.00;97973.88;5010744;28;20041;-80
2020/12/28 22:55:59;;;;;;;25.98;18.35;;;;;;;3.48;100.00;97982.53;5009325;28;20030;-79
2020/12/28 22:58:24;;;;;;;25.33;16.85;;;;;;;3.48;100.00;97973.88;5007805;28;20041;-80
2020/12/28 23:00:49;;;;;;;25.67;16.92;;;;;;;3.43;100.00;97971.53;5014128;28;20607;-79
2020/12/28 23:03:14;;;;;;;24.75;16.55;;;;;;;3.46;100.00;97981.78;5006845;28;20029;-80
2020/12/28 23:05:40;;;;;;;26.02;17.73;;;;;;;3.46;100.00;97983.56;5011188;28;20741;-80
2020/12/28 23:08:06;;;;;;;23.85;17.00;;;;;;;3.47;100.00;97988.69;5015205;28;20136;-79
2020/12/28 23:10:32;;;;;;;25.80;16.60;;;;;;;3.40;100.00;97986.53;5011247;28;20448;-80
2020/12/28 23:12:57;;;;;;;19.83;14.70;;;;;;;3.42;100.00;97985.53;5006151;28;20033;-77
2020/12/28 23:15:22;;;;;;;19.42;14.43;;;;;;;3.46;100.00;97988.78;5010148;28;20104;-78
2020/12/28 23:17:49;;;;;;;22.63;15.95;;;;;;;3.45;100.00;97987.09;5014318;28;20475;-78
2020/12/28 23:20:14;;;;;;;22.10;14.77;;;;;;;3.44;100.00;97988.03;5012263;28;20034;-79
2020/12/28 23:22:40;;;;;;;20.83;14.65;;;;;;;3.48;100.00;97989.53;5010094;28;20037;-78
2020/12/28 23:25:05;;;;;;;20.55;13.80;;;;;;;3.49;100.00;97989.44;5006534;28;20124;-79
2020/12/28 23:27:30;;;;;;;20.33;13.68;;;;;;;3.50;100.00;97998.94;5007886;28;20085;-80
2020/12/28 23:29:56;;;;;;;18.02;13.80;;;;;;;3.53;100.00;98001.38;5008340;28;20384;-79
2020/12/28 23:32:32;;;;;;;22.30;13.90;;;;;;;3.52;100.00;98004.09;5012585;28;20116;-79
2020/12/28 23:35:00;;;;;;;19.40;13.63;;;;;;;3.49;100.00;98001.66;5008103;28;20041;-79
2020/12/28 23:37:27;;;;;;;20.45;14.65;;;;;;;3.48;100.00;98002.59;5008411;28;20557;-79
2020/12/28 23:39:58;;;;;;;21.30;15.10;;;;;;;3.40;100.00;97992.59;5012664;28;20116;-78
2020/12/28 23:42:32;;;;;;;25.52;15.80;;;;;;;3.48;100.00;98005.22;5010048;28;20042;-79
2020/12/28 23:45:19;;;;;;;23.67;15.77;;;;;;;3.41;100.00;97996.88;5024715;28;20131;-79
2020/12/28 23:47:47;;;;;;;26.63;16.58;;;;;;;3.44;100.00;98007.16;5020759;28;20076;-79
2020/12/28 23:50:29;;;;;;;22.83;15.98;;;;;;;3.44;100.00;98014.16;5005005;28;20038;-78
2020/12/28 23:52:57;;;;;;;26.27;16.73;;;;;;;3.38;100.00;98018.81;5005451;28;20038;-79
2020/12/28 23:55:32;;;;;;;25.23;16.00;;;;;;;3.43;100.00;98018.53;5006369;28;20125;-79
2020/12/28 23:57:57;;;;;;;22.08;16.77;;;;;;;3.43;100.00;98018.53;5008806;28;20029;-79
